Terminal Aerodrome Forecast
Issued by NWS

Home | Current Version | Previous Version | Text Only | Print | Product List | Glossary Off
Versions: 1 2 3 4 5 6 7 8 9 10 11 12 13 14 15 16 17 18 19 20 21 22 23 24 25 26 27 28 29 30 31 32

000
FTUS43 KLOT 271300 AAA
TAFORD
TAF AMD
KORD 271343Z 2714/2818 19010G17KT P6SM FEW100 BKN250
     FM271600 20015G23KT P6SM BKN200
     FM280000 21011KT P6SM BKN050
     FM280300 21011KT 4SM SHRA BKN030 PROB30 2804/2809 -TSRA
      BKN025CB
     FM280900 28012KT 6SM -SHRA OVC050
     FM281400 26013G25KT P6SM SCT250=

USA.gov is the U.S. government's official web portal to all federal, state and local government web resources and services.